Time;durP1;ratioP1;P1;durP2;ratioP2;P2;SDS_P1;SDS_P2;PMS_P1;PMS_P2;Temp;Humidity;BMP_temperature;BMP_pressure;BME280_temperature;BME280_humidity;BME280_pressure;Samples;Min_cycle;Max_cycle;Signal;HPM_P1;HPM_P2
2022/06/03 00:02:08;;;;;;;11.10;6.35;;;;;;;7.11;100.00;101797.53;4910611;29;20151;-73
2022/06/03 00:04:52;;;;;;;16.15;8.18;;;;;;;7.05;100.00;101795.34;4907611;29;20080;-72
2022/06/03 00:07:33;;;;;;;17.67;7.88;;;;;;;7.00;100.00;101794.84;4909681;29;20115;-73
2022/06/03 00:10:46;;;;;;;9.25;5.57;;;;;;;6.93;100.00;101796.22;4909442;29;20043;-73
2022/06/03 00:13:49;;;;;;;13.35;6.53;;;;;;;6.93;100.00;101785.59;4925023;29;20032;-73
2022/06/03 00:16:56;;;;;;;13.18;6.28;;;;;;;6.94;100.00;101793.47;4923595;29;20051;-73
2022/06/03 00:19:42;;;;;;;14.73;7.40;;;;;;;6.85;100.00;101785.34;4924461;29;20486;-73
2022/06/03 00:22:43;;;;;;;13.95;5.90;;;;;;;6.83;100.00;101797.88;4908137;29;20032;-72
2022/06/03 00:25:40;;;;;;;11.07;5.55;;;;;;;6.86;100.00;101790.53;4907815;29;20496;-73
2022/06/03 00:28:13;;;;;;;14.57;8.02;;;;;;;6.88;100.00;101798.38;4907601;29;20040;-72
2022/06/03 00:30:48;;;;;;;9.77;6.28;;;;;;;6.84;100.00;101796.94;4924789;29;20036;-72
2022/06/03 00:33:17;;;;;;;11.20;6.95;;;;;;;6.84;100.00;101800.44;4910149;29;20036;-72
2022/06/03 00:35:57;;;;;;;15.80;7.38;;;;;;;6.81;100.00;101800.63;4909228;29;20051;-72
2022/06/03 00:38:29;;;;;;;11.27;6.18;;;;;;;6.75;100.00;101796.63;4924629;29;20371;-73
2022/06/03 00:41:10;;;;;;;17.73;8.00;;;;;;;6.79;100.00;101804.34;4924411;29;20047;-73
2022/06/03 00:43:51;;;;;;;11.98;6.30;;;;;;;6.76;100.00;101800.13;4905546;29;20134;-72
2022/06/03 00:46:42;;;;;;;13.32;6.90;;;;;;;6.73;100.00;101790.59;4910059;29;20040;-72
2022/06/03 00:50:04;;;;;;;12.32;7.18;;;;;;;6.76;100.00;101794.81;4907419;29;20039;-72
2022/06/03 00:52:38;;;;;;;18.58;7.32;;;;;;;6.74;100.00;101786.13;4888005;29;20438;-72
2022/06/03 00:55:33;;;;;;;12.18;6.70;;;;;;;6.80;100.00;101790.16;4899798;29;20066;-72
2022/06/03 00:58:16;;;;;;;14.23;6.63;;;;;;;6.79;100.00;101791.09;4923966;29;20600;-73
2022/06/03 01:01:12;;;;;;;10.68;5.65;;;;;;;6.69;100.00;101791.75;4921928;29;20550;-72
2022/06/03 01:03:56;;;;;;;;;;;;;;;6.67;100.00;101804.31;4907336;29;20036;-72
2022/06/03 01:06:46;;;;;;;14.20;6.35;;;;;;;6.65;100.00;101794.75;4908232;29;20055;-72
2022/06/03 01:10:00;;;;;;;13.85;6.50;;;;;;;6.68;100.00;101795.38;4921999;29;20481;-72
2022/06/03 01:13:01;;;;;;;13.50;6.25;;;;;;;6.71;100.00;101791.66;4899279;29;20044;-72
2022/06/03 01:15:46;;;;;;;15.23;6.82;;;;;;;6.70;100.00;101782.84;4905325;29;20043;-72
2022/06/03 01:18:21;;;;;;;13.35;5.85;;;;;;;6.72;100.00;101796.03;4907493;29;20463;-73
2022/06/03 01:21:25;;;;;;;12.18;6.72;;;;;;;6.73;100.00;101798.53;4908033;29;20566;-72
2022/06/03 01:23:50;;;;;;;12.55;6.90;;;;;;;6.79;100.00;101801.69;4906969;29;20042;-72
2022/06/03 01:26:26;;;;;;;13.43;6.80;;;;;;;6.75;100.00;101801.09;4908260;29;20425;-72
2022/06/03 01:29:10;;;;;;;;;;;;;;;6.75;100.00;101799.28;4908120;29;20054;-72
2022/06/03 01:32:13;;;;;;;9.18;5.30;;;;;;;6.66;100.00;101807.91;4918023;29;20443;-72
2022/06/03 01:34:56;;;;;;;12.68;6.13;;;;;;;6.66;100.00;101807.06;4906224;29;20454;-72
2022/06/03 01:38:00;;;;;;;13.52;7.22;;;;;;;6.62;100.00;101802.94;4922969;29;20036;-73
2022/06/03 01:41:03;;;;;;;12.27;5.97;;;;;;;6.54;100.00;101804.34;4891761;29;20624;-73
2022/06/03 01:43:31;;;;;;;10.73;5.57;;;;;;;6.50;100.00;101799.38;4905043;29;20163;-72
2022/06/03 01:46:15;;;;;;;15.02;6.22;;;;;;;6.44;100.00;101803.31;4907641;29;20441;-73
2022/06/03 01:48:56;;;;;;;12.35;6.22;;;;;;;6.41;100.00;101797.38;4905090;29;20028;-72
2022/06/03 01:51:43;;;;;;;16.02;6.53;;;;;;;6.38;100.00;101794.94;4908608;29;20071;-72
2022/06/03 01:54:41;;;;;;;14.20;5.90;;;;;;;6.37;100.00;101801.19;4905402;29;20093;-72
2022/06/03 01:57:50;;;;;;;11.68;5.50;;;;;;;6.33;100.00;101793.47;4905325;29;20036;-72
2022/06/03 02:00:26;;;;;;;11.40;6.10;;;;;;;6.41;100.00;101797.38;4907295;29;20040;-73
2022/06/03 02:03:09;;;;;;;11.43;6.72;;;;;;;6.34;100.00;101795.16;4916164;29;20032;-72
2022/06/03 02:06:09;;;;;;;14.02;6.13;;;;;;;6.30;100.00;101788.38;4904518;29;20171;-72
2022/06/03 02:08:46;;;;;;;9.95;5.88;;;;;;;6.27;100.00;101796.53;4913402;29;20048;-72
2022/06/03 02:11:36;;;;;;;11.88;6.05;;;;;;;6.31;100.00;101798.03;4905050;29;20043;-73
2022/06/03 02:14:16;;;;;;;12.50;6.40;;;;;;;6.30;100.00;101793.69;4907565;29;20040;-73
2022/06/03 02:17:05;;;;;;;12.23;6.30;;;;;;;6.29;100.00;101785.84;4907535;29;20036;-72
2022/06/03 02:20:07;;;;;;;15.65;7.20;;;;;;;6.19;100.00;101790.94;4903316;29;20047;-73
2022/06/03 02:22:58;;;;;;;14.05;6.55;;;;;;;6.11;100.00;101790.63;4911220;29;20082;-72
2022/06/03 02:25:26;;;;;;;8.63;4.90;;;;;;;6.07;100.00;101790.00;4908376;29;20032;-73
2022/06/03 02:28:10;;;;;;;11.27;5.93;;;;;;;6.09;100.00;101792.56;4922972;29;20028;-72
2022/06/03 02:31:28;;;;;;;9.02;5.78;;;;;;;6.07;100.00;101790.00;4905670;29;20371;-73
2022/06/03 02:34:03;;;;;;;12.80;4.72;;;;;;;5.98;100.00;101785.34;4875118;29;20107;-73
2022/06/03 02:36:54;;;;;;;9.85;5.40;;;;;;;5.88;100.00;101787.75;4903219;29;20569;-72
2022/06/03 02:39:34;;;;;;;10.50;5.07;;;;;;;5.85;100.00;101785.34;4906440;29;20036;-72
2022/06/03 02:42:28;;;;;;;12.20;5.45;;;;;;;5.87;100.00;101785.22;4905092;29;20028;-72
2022/06/03 02:45:13;;;;;;;13.23;5.80;;;;;;;5.93;100.00;101782.97;4906425;29;20126;-72
2022/06/03 02:47:50;;;;;;;15.43;5.70;;;;;;;5.82;100.00;101782.88;4904565;29;20028;-72
2022/06/03 02:50:40;;;;;;;12.15;5.82;;;;;;;5.76;100.00;101785.97;4925911;29;20039;-72
2022/06/03 02:53:41;;;;;;;15.52;5.68;;;;;;;5.70;100.00;101778.44;4907885;29;20032;-72
2022/06/03 02:56:40;;;;;;;17.10;8.35;;;;;;;5.79;100.00;101780.44;4911700;29;20140;-72
2022/06/03 02:59:34;;;;;;;13.25;6.60;;;;;;;5.71;100.00;101780.97;4907688;29;20217;-72
2022/06/03 03:02:24;;;;;;;11.55;6.15;;;;;;;5.69;100.00;101774.09;4926268;29;20040;-72
2022/06/03 03:05:16;;;;;;;13.27;7.35;;;;;;;5.68;100.00;101769.72;4909061;29;20775;-72
2022/06/03 03:08:09;;;;;;;11.32;6.55;;;;;;;5.68;100.00;101777.69;4908448;29;20048;-72
2022/06/03 03:10:58;;;;;;;13.68;6.60;;;;;;;5.71;100.00;101774.81;4908157;29;20036;-72
2022/06/03 03:13:58;;;;;;;11.60;6.63;;;;;;;5.68;100.00;101777.69;4925978;29;20437;-72
2022/06/03 03:16:26;;;;;;;9.73;5.85;;;;;;;5.67;100.00;101776.84;4910090;29;20032;-72
2022/06/03 03:19:10;;;;;;;11.02;6.40;;;;;;;5.62;100.00;101772.78;4911378;29;20056;-72
2022/06/03 03:21:51;;;;;;;19.13;7.47;;;;;;;5.71;100.00;101775.69;4906833;29;20040;-72
2022/06/03 03:24:35;;;;;;;17.20;7.88;;;;;;;5.64;100.00;101774.41;4926078;29;20156;-73
2022/06/03 03:27:40;;;;;;;16.88;7.75;;;;;;;5.63;100.00;101782.47;4922709;29;20493;-72
2022/06/03 03:30:21;;;;;;;11.30;4.88;;;;;;;5.71;100.00;101785.41;4911330;29;20107;-73
2022/06/03 03:33:12;;;;;;;17.20;7.40;;;;;;;5.74;100.00;101787.88;4909637;29;20864;-72
2022/06/03 03:35:53;;;;;;;16.67;7.32;;;;;;;5.80;100.00;101789.25;4908429;29;20036;-73
2022/06/03 03:38:40;;;;;;;14.93;9.00;;;;;;;5.81;100.00;101794.44;4909820;29;20043;-73
2022/06/03 03:41:18;;;;;;;14.20;8.45;;;;;;;5.86;100.00;101789.66;4906929;29;20070;-73
2022/06/03 03:44:22;;;;;;;19.77;8.25;;;;;;;5.88;100.00;101800.19;4925808;29;20119;-72
2022/06/03 03:46:56;;;;;;;17.60;9.75;;;;;;;6.01;100.00;101800.19;4924180;29;20053;-72
2022/06/03 03:49:55;;;;;;;13.07;7.68;;;;;;;6.09;100.00;101813.78;4909610;29;20036;-72
2022/06/03 03:52:50;;;;;;;13.25;7.45;;;;;;;6.12;100.00;101821.50;4908652;29;20040;-72
2022/06/03 03:56:07;;;;;;;12.30;7.20;;;;;;;6.29;100.00;101823.81;4905725;29;20055;-72
2022/06/03 03:58:51;;;;;;;18.92;9.23;;;;;;;6.36;100.00;101823.38;4907616;29;20430;-72
2022/06/03 04:01:38;;;;;;;21.92;10.07;;;;;;;6.49;100.00;101825.06;4922830;29;20032;-72
2022/06/03 04:04:18;;;;;;;18.95;10.30;;;;;;;6.73;100.00;101827.75;4922343;29;20028;-72
2022/06/03 04:07:14;;;;;;;16.10;8.75;;;;;;;6.86;100.00;101821.53;4910778;29;20078;-73
2022/06/03 04:09:55;;;;;;;17.52;9.40;;;;;;;6.99;100.00;101827.66;4905402;29;20183;-72
2022/06/03 04:12:52;;;;;;;20.70;9.60;;;;;;;7.09;100.00;101827.81;4909983;29;20028;-72
2022/06/03 04:15:47;;;;;;;13.73;8.60;;;;;;;7.21;100.00;101831.38;4909609;29;20191;-72
2022/06/03 04:18:48;;;;;;;15.32;8.70;;;;;;;7.33;100.00;101833.13;4906190;29;20380;-72
2022/06/03 04:21:28;;;;;;;15.90;9.05;;;;;;;7.49;100.00;101836.34;4874826;29;20528;-73
2022/06/03 04:24:28;;;;;;;13.25;7.93;;;;;;;7.64;100.00;101825.50;4898176;29;20128;-72
2022/06/03 04:27:19;;;;;;;16.52;8.80;;;;;;;7.84;100.00;101827.44;4908040;29;20072;-73
2022/06/03 04:30:15;;;;;;;13.68;8.70;;;;;;;8.03;100.00;101825.09;4911550;29;20056;-72
2022/06/03 04:33:30;;;;;;;19.30;10.00;;;;;;;8.25;100.00;101815.41;4907624;29;20338;-72
2022/06/03 04:36:40;;;;;;;20.92;10.05;;;;;;;8.46;100.00;101826.19;4908311;29;20493;-73
2022/06/03 04:39:24;;;;;;;17.83;8.98;;;;;;;8.59;100.00;101823.38;4909753;29;20051;-73
2022/06/03 04:42:39;;;;;;;14.00;8.38;;;;;;;8.78;100.00;101820.94;4908668;29;20040;-73
2022/06/03 04:45:23;;;;;;;19.73;8.48;;;;;;;8.90;100.00;101826.22;4910189;29;20413;-73
2022/06/03 04:48:18;;;;;;;18.50;9.88;;;;;;;9.07;100.00;101812.38;4909943;29;20351;-73
2022/06/03 04:51:04;;;;;;;14.27;8.63;;;;;;;9.30;100.00;101816.66;4908092;29;20478;-73
2022/06/03 04:53:52;;;;;;;16.38;9.27;;;;;;;9.46;100.00;101824.22;4906163;29;20050;-73
2022/06/03 04:56:32;;;;;;;12.85;8.52;;;;;;;9.60;100.00;101809.72;4907729;29;20047;-72
2022/06/03 04:59:36;;;;;;;20.55;9.90;;;;;;;9.73;100.00;101805.00;4909095;29;20397;-73
2022/06/03 05:02:26;;;;;;;18.65;9.00;;;;;;;9.92;100.00;101801.59;4908173;29;20047;-73
2022/06/03 05:05:25;;;;;;;16.30;8.63;;;;;;;10.20;100.00;101798.38;4909037;29;20113;-73
2022/06/03 05:07:50;;;;;;;17.27;8.07;;;;;;;10.35;100.00;101799.75;4906890;29;20043;-73
2022/06/03 05:10:52;;;;;;;20.87;7.40;;;;;;;10.42;100.00;101805.34;4923231;29;20028;-73
2022/06/03 05:13:40;;;;;;;15.48;8.60;;;;;;;10.63;100.00;101798.13;4906913;29;20032;-73
2022/06/03 05:16:43;;;;;;;17.30;9.18;;;;;;;10.86;100.00;101796.03;4905511;29;20395;-73
2022/06/03 05:19:25;;;;;;;14.80;7.35;;;;;;;11.24;100.00;101799.75;4906947;29;20482;-73
2022/06/03 05:22:13;;;;;;;16.05;7.90;;;;;;;11.27;100.00;101778.06;4909202;29;20028;-73
2022/06/03 05:25:00;;;;;;;7.03;5.10;;;;;;;11.75;100.00;101766.44;4921476;29;20123;-73
2022/06/03 05:27:44;;;;;;;10.10;6.38;;;;;;;12.01;100.00;101753.28;4909586;29;20028;-74
2022/06/03 05:30:32;;;;;;;10.60;5.53;;;;;;;12.80;100.00;101765.22;4907023;29;20036;-73
2022/06/03 05:33:18;;;;;;;13.48;5.28;;;;;;;13.85;100.00;101723.28;4916605;29;20087;-71
2022/06/03 05:36:18;;;;;;;12.50;4.15;;;;;;;14.84;100.00;101645.66;4921597;29;20044;-72
2022/06/03 05:39:25;;;;;;;8.30;3.88;;;;;;;15.32;100.00;101504.84;4921569;29;20047;-74
2022/06/03 05:42:28;;;;;;;7.50;3.20;;;;;;;16.27;100.00;101384.38;4906388;29;20050;-71
2022/06/03 05:45:22;;;;;;;6.93;4.13;;;;;;;16.10;100.00;101297.50;4908170;29;20544;-72
2022/06/03 05:47:51;;;;;;;11.52;3.53;;;;;;;16.62;100.00;101296.53;4906242;29;20052;-72
2022/06/03 05:50:32;;;;;;;13.43;4.72;;;;;;;17.19;100.00;101276.84;4922848;29;20108;-72
2022/06/03 05:53:03;;;;;;;7.75;3.92;;;;;;;16.91;100.00;101165.38;4908507;29;20122;-72
2022/06/03 05:55:48;;;;;;;9.60;4.05;;;;;;;16.80;100.00;101245.75;4903830;29;20666;-72
2022/06/03 05:58:13;;;;;;;5.65;3.47;;;;;;;17.48;100.00;101345.22;4906801;29;20024;-72
2022/06/03 06:00:57;;;;;;;10.20;4.10;;;;;;;17.52;100.00;101203.44;4907605;29;20516;-74
2022/06/03 06:03:56;;;;;;;10.57;3.88;;;;;;;17.44;100.00;101242.22;4907568;29;20032;-72
2022/06/03 06:06:28;;;;;;;7.97;3.15;;;;;;;17.57;100.00;101275.72;4922850;29;20043;-72
2022/06/03 06:09:08;;;;;;;8.27;3.13;;;;;;;18.05;94.09;101192.09;4908860;29;20510;-72
2022/06/03 06:11:45;;;;;;;11.05;3.72;;;;;;;17.43;92.55;101116.38;4905724;29;20040;-72
2022/06/03 06:14:24;;;;;;;11.52;4.22;;;;;;;17.90;97.09;101286.78;4921403;29;20036;-72
2022/06/03 06:16:52;;;;;;;10.52;3.95;;;;;;;17.07;95.46;101154.31;4907591;29;20047;-71
2022/06/03 06:19:45;;;;;;;9.95;4.25;;;;;;;17.07;100.00;101302.69;4908379;29;20023;-72
2022/06/03 06:22:33;;;;;;;7.22;3.20;;;;;;;16.75;100.00;101372.19;4905237;29;20032;-72
2022/06/03 06:25:10;;;;;;;8.15;3.45;;;;;;;16.79;100.00;101219.81;4926282;29;20085;-74
2022/06/03 06:27:50;;;;;;;9.88;3.75;;;;;;;16.04;100.00;101223.69;4907811;29;20039;-73
2022/06/03 06:30:58;;;;;;;6.47;4.07;;;;;;;15.15;100.00;101283.56;4911143;29;20095;-73
2022/06/03 06:33:23;;;;;;;7.97;3.92;;;;;;;14.84;100.00;101436.78;4926659;29;20032;-73
2022/06/03 06:36:27;;;;;;;10.63;4.03;;;;;;;15.09;100.00;101502.09;4911935;29;20554;-73
2022/06/03 06:39:25;;;;;;;10.27;3.65;;;;;;;14.54;100.00;101476.88;4925650;29;20058;-73
2022/06/03 06:42:01;;;;;;;9.32;4.28;;;;;;;14.27;100.00;101539.81;4909510;29;20048;-73
2022/06/03 06:44:46;;;;;;;6.90;4.07;;;;;;;13.85;100.00;101586.41;4922631;29;20028;-73
2022/06/03 06:47:22;;;;;;;9.48;3.92;;;;;;;13.97;100.00;101632.56;4909620;29;20390;-74
2022/06/03 06:50:06;;;;;;;8.63;4.22;;;;;;;13.88;100.00;101612.94;4926801;29;20036;-73
2022/06/03 06:52:46;;;;;;;8.95;4.32;;;;;;;13.89;100.00;101636.06;4908441;29;20413;-73
2022/06/03 06:55:35;;;;;;;8.23;3.80;;;;;;;14.72;100.00;101559.13;4925092;29;20040;-73
2022/06/03 06:58:06;;;;;;;9.55;3.88;;;;;;;15.20;100.00;101527.78;4908869;29;20086;-73
2022/06/03 07:00:38;;;;;;;9.93;3.85;;;;;;;15.02;100.00;101492.22;4907438;29;20032;-73
2022/06/03 07:03:29;;;;;;;9.40;4.07;;;;;;;15.14;100.00;101416.34;4908939;29;20195;-73
2022/06/03 07:06:03;;;;;;;9.43;4.13;;;;;;;14.85;100.00;101496.81;4919551;29;20839;-73
2022/06/03 07:08:49;;;;;;;6.72;3.42;;;;;;;15.71;100.00;101476.22;4922470;29;20151;-73
2022/06/03 07:11:27;;;;;;;4.85;3.17;;;;;;;15.60;100.00;101459.44;4909559;29;20514;-74
2022/06/03 07:13:56;;;;;;;5.97;3.65;;;;;;;15.50;100.00;101431.09;4911850;29;20475;-74
2022/06/03 07:19:48;;;;;;;13.55;4.22;;;;;;;15.23;100.00;101384.03;4899461;29;20040;-74
2022/06/03 07:22:55;;;;;;;9.27;3.75;;;;;;;14.40;100.00;101426.50;4909856;29;20123;-73
2022/06/03 07:25:43;;;;;;;13.13;4.10;;;;;;;14.21;100.00;101575.41;4882266;29;20044;-74
2022/06/03 07:28:27;;;;;;;12.00;4.65;;;;;;;14.03;100.00;101531.75;4925393;29;20036;-73
2022/06/03 07:31:13;;;;;;;8.43;4.13;;;;;;;13.95;100.00;101564.78;4925514;29;20244;-74
2022/06/03 07:33:53;;;;;;;9.93;4.90;;;;;;;13.94;100.00;101534.41;4908540;29;20491;-73
2022/06/03 07:36:26;;;;;;;5.78;3.58;;;;;;;13.90;100.00;101508.06;4909798;29;20036;-73
2022/06/03 07:39:00;;;;;;;5.53;3.58;;;;;;;14.18;100.00;101564.97;4911407;29;20047;-73
2022/06/03 07:41:39;;;;;;;5.38;4.55;;;;;;;14.85;100.00;101510.25;4911147;29;20028;-73
2022/06/03 07:44:16;;;;;;;13.20;4.32;;;;;;;14.76;100.00;101499.50;4908359;29;20401;-73
2022/06/03 07:47:00;;;;;;;11.13;4.05;;;;;;;14.51;100.00;101446.78;4910983;29;20450;-73
2022/06/03 07:49:29;;;;;;;8.85;3.67;;;;;;;15.14;100.00;101521.22;4909554;29;20099;-74
2022/06/03 07:52:01;;;;;;;9.02;3.88;;;;;;;15.94;100.00;101474.38;4918178;29;20024;-73
2022/06/03 07:54:30;;;;;;;7.20;3.65;;;;;;;16.48;100.00;101408.72;4909863;29;20107;-74
2022/06/03 07:57:07;;;;;;;4.43;3.50;;;;;;;16.62;100.00;101245.31;4909708;29;20533;-72
2022/06/03 07:59:35;;;;;;;8.45;3.25;;;;;;;16.49;100.00;101288.31;4906236;29;20096;-72
2022/06/03 08:02:03;;;;;;;7.80;2.97;;;;;;;17.01;98.52;101304.28;4907629;29;20016;-72
2022/06/03 08:04:33;;;;;;;6.43;2.80;;;;;;;17.97;92.49;101300.34;4907042;29;20446;-72
2022/06/03 08:12:31;;;;;;;4.50;2.92;;;;;;;16.18;100.00;101300.13;4906839;29;20036;-74
2022/06/03 08:14:57;;;;;;;8.55;3.45;;;;;;;16.46;97.74;101276.88;4909353;29;20024;-72
2022/06/03 08:17:24;;;;;;;3.70;2.80;;;;;;;16.43;92.68;101168.59;4925343;29;20048;-71
2022/06/03 08:19:50;;;;;;;5.10;2.47;;;;;;;16.91;89.37;101209.38;4910373;29;20075;-72
2022/06/03 08:22:20;;;;;;;6.22;3.55;;;;;;;16.17;92.96;101156.50;4909729;29;20386;-71
2022/06/03 08:24:55;;;;;;;6.28;3.47;;;;;;;15.97;100.00;101296.31;4925123;29;20130;-72
2022/06/03 08:27:32;;;;;;;4.95;2.65;;;;;;;16.85;100.00;101510.28;4910482;29;20036;-71
2022/06/03 08:30:05;;;;;;;6.72;3.00;;;;;;;17.71;97.12;101426.84;4924604;29;20118;-71
2022/06/03 08:32:39;;;;;;;5.18;2.95;;;;;;;17.45;92.67;101313.22;4905849;29;20046;-72
2022/06/03 08:35:14;;;;;;;11.82;3.28;;;;;;;17.83;87.94;101284.03;4907462;29;20044;-71
2022/06/03 08:38:04;;;;;;;8.85;3.45;;;;;;;17.55;88.27;101246.22;4910412;29;20036;-71
2022/06/03 08:40:38;;;;;;;4.65;3.25;;;;;;;16.82;99.69;101350.72;4905006;29;20051;-74
2022/06/03 08:43:22;;;;;;;7.50;3.03;;;;;;;17.71;91.43;101345.00;4921302;29;20486;-72
2022/06/03 08:46:07;;;;;;;6.47;3.38;;;;;;;17.75;91.37;101323.81;4924698;29;20486;-72
2022/06/03 08:48:38;;;;;;;9.82;3.13;;;;;;;17.85;88.72;101295.50;4906735;29;20043;-72
2022/06/03 08:51:10;;;;;;;9.80;3.00;;;;;;;17.72;88.94;101282.72;4897471;29;20040;-72
2022/06/03 08:53:58;;;;;;;3.85;2.40;;;;;;;18.78;88.93;101433.13;4910256;29;20036;-72
2022/06/03 08:56:31;;;;;;;9.07;3.20;;;;;;;19.03;87.65;101436.13;4924867;29;20049;-71
2022/06/03 08:58:57;;;;;;;4.00;2.72;;;;;;;18.03;82.81;101167.19;4908876;29;20131;-72
2022/06/03 09:01:25;;;;;;;5.80;3.00;;;;;;;18.94;81.92;101304.75;4910066;29;20103;-72
2022/06/03 09:04:11;;;;;;;6.80;2.75;;;;;;;18.71;83.04;101294.28;4909593;29;20028;-72
2022/06/03 09:06:47;;;;;;;5.60;3.33;;;;;;;18.38;83.20;101231.94;4905675;29;20051;-72
2022/06/03 09:09:32;;;;;;;7.90;3.03;;;;;;;19.13;83.56;101370.81;4909574;29;20051;-72
2022/06/03 09:12:03;;;;;;;5.75;4.18;;;;;;;19.26;83.13;101378.13;4909693;29;20035;-72
2022/06/03 09:14:29;;;;;;;7.63;2.38;;;;;;;19.95;82.16;101448.28;4905829;29;20146;-72
2022/06/03 09:17:03;;;;;;;7.00;3.03;;;;;;;19.38;79.96;101309.63;4909872;29;20174;-72
2022/06/03 09:19:39;;;;;;;6.13;2.78;;;;;;;20.29;78.16;101403.00;4905555;29;20115;-72
2022/06/03 09:22:13;;;;;;;6.07;2.70;;;;;;;20.13;76.02;101320.22;4921215;29;20036;-72
2022/06/03 09:24:41;;;;;;;3.90;2.70;;;;;;;20.26;70.99;101210.94;4909584;29;20036;-72
2022/06/03 09:27:10;;;;;;;2.85;2.45;;;;;;;21.01;68.32;101260.00;4909705;29;20421;-72
2022/06/03 09:29:37;;;;;;;6.78;2.95;;;;;;;20.59;66.74;101140.28;4909125;29;20040;-72
2022/06/03 09:32:06;;;;;;;7.60;3.38;;;;;;;20.55;67.18;101140.91;4907781;29;20028;-72
2022/06/03 09:34:40;;;;;;;7.53;2.63;;;;;;;20.44;67.94;101150.56;4909341;29;20486;-73
2022/06/03 09:37:08;;;;;;;3.28;2.65;;;;;;;20.92;63.33;101122.09;4923789;29;20340;-72
2022/06/03 09:39:34;;;;;;;5.05;2.42;;;;;;;20.63;63.96;101084.53;4908905;29;20579;-71
2022/06/03 09:42:00;;;;;;;9.65;2.97;;;;;;;20.34;71.91;101262.19;4907702;29;20032;-72
2022/06/03 09:44:27;;;;;;;5.68;2.58;;;;;;;20.71;68.95;101262.47;4907017;29;20028;-72
2022/06/03 09:46:59;;;;;;;3.75;2.45;;;;;;;20.55;63.32;101044.06;4909220;29;20493;-72
2022/06/03 09:49:26;;;;;;;8.25;2.83;;;;;;;20.14;71.21;101248.72;4907227;29;20324;-72
2022/06/03 09:52:03;;;;;;;4.88;2.08;;;;;;;20.54;62.99;101091.25;4915951;29;20035;-72
2022/06/03 09:54:38;;;;;;;4.53;2.40;;;;;;;20.59;66.43;101220.81;4909068;29;20036;-72
2022/06/03 09:57:18;;;;;;;7.60;3.05;;;;;;;20.41;61.37;101004.56;4906235;29;20500;-72
2022/06/03 09:59:59;;;;;;;5.40;2.30;;;;;;;20.05;62.56;100989.84;4908301;29;20067;-72
2022/06/03 10:02:26;;;;;;;7.13;2.15;;;;;;;20.60;64.91;101188.06;4908499;29;20456;-72
2022/06/03 10:04:52;;;;;;;4.68;2.60;;;;;;;20.97;62.17;101152.91;4923608;29;20028;-73
2022/06/03 10:07:18;;;;;;;6.50;2.33;;;;;;;21.01;61.85;101143.28;4908943;29;20082;-73
2022/06/03 10:13:06;;;;;;;9.77;2.80;;;;;;;21.63;58.00;101112.59;4904375;29;20028;-72
2022/06/03 10:15:38;;;;;;;11.60;3.00;;;;;;;21.31;57.17;100995.16;4906884;29;20044;-72
2022/06/03 10:18:24;;;;;;;5.35;2.47;;;;;;;20.81;58.99;101002.38;4908932;29;20485;-72
2022/06/03 10:20:54;;;;;;;7.28;2.30;;;;;;;21.49;57.48;101047.59;4906026;29;20056;-72
2022/06/03 10:23:23;;;;;;;7.30;2.20;;;;;;;22.22;56.73;101154.56;4923167;29;20029;-72
2022/06/03 10:25:52;;;;;;;7.25;2.25;;;;;;;22.53;53.59;101032.97;4916453;29;20438;-73
2022/06/03 10:28:18;;;;;;;8.23;2.35;;;;;;;21.97;54.26;100988.00;4908637;29;20091;-73
2022/06/03 10:30:46;;;;;;;5.78;1.88;;;;;;;22.34;54.09;101109.19;4908816;29;20028;-73
2022/06/03 10:33:19;;;;;;;3.30;2.10;;;;;;;21.44;54.79;100965.94;4907135;29;20099;-73
2022/06/03 10:35:47;;;;;;;10.55;2.60;;;;;;;21.30;54.62;100942.69;4907293;29;20123;-73
2022/06/03 10:38:17;;;;;;;4.88;2.20;;;;;;;21.31;55.60;101008.72;4908580;29;20028;-73
2022/06/03 10:40:50;;;;;;;6.43;2.17;;;;;;;21.50;56.77;101109.00;4908677;29;20067;-73
2022/06/03 10:43:32;;;;;;;5.20;2.30;;;;;;;22.32;55.93;101173.88;4907382;29;20039;-73
2022/06/03 10:46:13;;;;;;;5.65;2.30;;;;;;;22.75;53.92;101172.81;4908586;29;20068;-72
2022/06/03 10:48:39;;;;;;;3.47;2.22;;;;;;;22.89;54.24;101189.78;4920174;29;20060;-75
2022/06/03 11:02:36;;;;;;;4.20;1.80;;;;;;;22.69;51.19;101037.69;4905381;29;20466;-75
2022/06/03 11:05:35;;;;;;;6.38;2.20;;;;;;;21.60;50.70;100773.50;4904775;29;20020;-74
2022/06/03 11:08:04;;;;;;;5.97;2.20;;;;;;;21.43;50.92;100776.06;4883033;29;20044;-75
2022/06/03 11:10:42;;;;;;;3.90;2.13;;;;;;;21.58;53.84;100976.63;4920790;29;20071;-75
2022/06/03 11:13:10;;;;;;;5.50;2.38;;;;;;;22.74;49.49;100971.69;4908081;29;20039;-75
2022/06/03 11:15:42;;;;;;;6.18;2.13;;;;;;;22.90;49.35;100940.19;4911721;29;20080;-75
2022/06/03 11:18:29;;;;;;;6.95;2.20;;;;;;;23.25;50.31;101073.59;4910818;29;20123;-75
2022/06/03 11:20:56;;;;;;;5.45;2.45;;;;;;;23.42;48.04;100981.03;4926229;29;20040;-75
2022/06/03 11:23:22;;;;;;;6.95;1.83;;;;;;;23.14;47.12;100821.97;4911778;29;20028;-75
2022/06/03 11:25:53;;;;;;;;;;;;;;;22.42;48.29;100787.06;4910903;29;20454;-75
2022/06/03 11:28:29;;;;;;;2.92;1.83;;;;;;;23.48;52.14;101206.19;4926274;29;20456;-75
2022/06/03 11:31:04;;;;;;;;;;;;;;;23.38;48.09;100939.00;4926368;29;20554;-75
2022/06/03 11:33:44;;;;;;;3.90;1.80;;;;;;;23.33;46.45;100813.59;4906609;29;20392;-75
2022/06/03 11:36:15;;;;;;;4.43;2.00;;;;;;;23.14;48.27;100935.53;4908085;29;20040;-75
2022/06/03 11:38:49;;;;;;;3.67;1.98;;;;;;;23.89;46.81;100969.94;4911428;29;20055;-75
2022/06/03 11:41:30;;;;;;;2.58;1.55;;;;;;;24.30;45.83;100946.06;4910965;29;20297;-75
2022/06/03 11:44:10;;;;;;;6.72;2.47;;;;;;;23.85;44.54;100767.03;4911265;29;20043;-75
2022/06/03 11:46:41;;;;;;;5.00;2.17;;;;;;;24.19;45.49;100876.91;4908135;29;20063;-75
2022/06/03 11:49:08;;;;;;;3.20;2.15;;;;;;;22.97;47.10;100763.91;4911025;29;20509;-75
2022/06/03 11:51:34;;;;;;;3.05;1.50;;;;;;;23.95;46.35;100905.41;4911657;29;20057;-74
2022/06/03 11:54:00;;;;;;;5.80;1.90;;;;;;;23.56;45.95;100780.75;4907502;29;20127;-75
2022/06/03 11:56:29;;;;;;;7.28;2.30;;;;;;;23.63;46.37;100839.72;4909793;29;20032;-75
2022/06/03 11:59:32;;;;;;;2.10;1.75;;;;;;;22.58;46.36;100624.97;4911029;29;20100;-75
2022/06/03 12:02:24;;;;;;;4.03;2.28;;;;;;;24.05;46.69;100972.94;4910434;29;20028;-74
2022/06/03 12:05:22;;;;;;;3.63;1.83;;;;;;;24.23;44.68;100855.38;4907611;29;20035;-74
2022/06/03 12:08:05;;;;;;;4.28;2.45;;;;;;;23.81;44.51;100700.47;4908642;29;20107;-75
2022/06/03 12:10:58;;;;;;;2.92;1.63;;;;;;;23.51;46.41;100840.63;4940113;23;20047;-78
2022/06/03 12:13:29;;;;;;;2.20;1.50;;;;;;;24.63;46.39;101045.41;4934957;29;20044;-76
2022/06/03 12:15:55;;;;;;;3.88;1.17;;;;;;;24.56;43.39;100793.66;4938346;29;20091;-77
2022/06/03 12:18:32;;;;;;;2.42;1.30;;;;;;;24.49;43.57;100809.38;4952550;29;20118;-77
2022/06/03 12:21:15;;;;;;;2.58;1.40;;;;;;;24.34;43.05;100730.88;4934782;29;20103;-79
2022/06/03 12:23:43;;;;;;;2.08;1.48;;;;;;;25.13;42.77;100902.47;4933970;29;20067;-79
2022/06/03 12:26:11;;;;;;;4.82;1.30;;;;;;;23.80;42.38;100518.91;4952242;29;20054;-77
2022/06/03 12:28:36;;;;;;;1.30;1.10;;;;;;;22.02;44.84;100398.28;4952110;29;20089;-77
2022/06/03 12:31:08;;;;;;;3.13;1.30;;;;;;;23.74;43.65;100688.91;4931671;29;20474;-79
2022/06/03 12:33:35;;;;;;;1.27;0.90;;;;;;;24.11;41.76;100611.97;4935071;29;20572;-77
2022/06/03 12:36:05;;;;;;;2.47;1.13;;;;;;;24.69;40.81;100683.25;4931106;29;20031;-77
2022/06/03 12:38:34;;;;;;;2.92;1.50;;;;;;;24.00;42.44;100606.41;4930742;29;20428;-78
2022/06/03 12:41:04;;;;;;;4.63;1.20;;;;;;;24.51;40.67;100605.31;4933014;29;20028;-76
2022/06/03 12:43:30;;;;;;;1.90;1.20;;;;;;;23.81;41.28;100455.13;4938550;29;20126;-79
2022/06/03 12:46:07;;;;;;;6.03;1.70;;;;;;;24.10;43.08;100686.69;4935308;29;20027;-77
2022/06/03 12:48:36;;;;;;;2.35;1.20;;;;;;;22.02;42.87;100194.41;4931934;29;20283;-77
2022/06/03 12:51:28;;;;;;;3.22;1.20;;;;;;;22.97;44.77;100631.34;4919316;29;20039;-79
2022/06/03 12:53:59;;;;;;;1.65;0.90;;;;;;;24.07;43.22;100741.72;4942689;29;20160;-77